sensor_id;sensor_type;location;lat;lon;timestamp;P1;durP1;ratioP1;P2;durP2;ratioP2
11837;SDS011;5978;51.020;6.764;2023-03-01T00:01:36;10.83;;;7.70;;
11837;SDS011;5978;51.020;6.764;2023-03-01T00:04:02;9.53;;;7.60;;
11837;SDS011;5978;51.020;6.764;2023-03-01T00:06:28;14.18;;;7.75;;
11837;SDS011;5978;51.020;6.764;2023-03-01T00:08:54;10.30;;;7.83;;
11837;SDS011;5978;51.020;6.764;2023-03-01T00:11:20;10.20;;;8.30;;
11837;SDS011;5978;51.020;6.764;2023-03-01T00:13:52;8.80;;;7.35;;
11837;SDS011;5978;51.020;6.764;2023-03-01T00:16:23;11.25;;;6.93;;
11837;SDS011;5978;51.020;6.764;2023-03-01T00:18:56;12.23;;;8.07;;
11837;SDS011;5978;51.020;6.764;2023-03-01T00:21:23;10.93;;;8.18;;
11837;SDS011;5978;51.020;6.764;2023-03-01T00:23:49;12.05;;;7.32;;
11837;SDS011;5978;51.020;6.764;2023-03-01T00:26:15;10.55;;;7.70;;
11837;SDS011;5978;51.020;6.764;2023-03-01T00:28:43;8.55;;;7.15;;
11837;SDS011;5978;51.020;6.764;2023-03-01T00:31:09;12.90;;;8.20;;
11837;SDS011;5978;51.020;6.764;2023-03-01T00:33:44;9.70;;;6.90;;
11837;SDS011;5978;51.020;6.764;2023-03-01T00:36:10;11.50;;;7.63;;
11837;SDS011;5978;51.020;6.764;2023-03-01T00:38:38;8.25;;;7.32;;
11837;SDS011;5978;51.020;6.764;2023-03-01T00:41:06;10.85;;;8.82;;
11837;SDS011;5978;51.020;6.764;2023-03-01T00:43:34;11.82;;;8.68;;
11837;SDS011;5978;51.020;6.764;2023-03-01T00:46:05;8.82;;;6.97;;
11837;SDS011;5978;51.020;6.764;2023-03-01T00:48:33;9.60;;;7.85;;
11837;SDS011;5978;51.020;6.764;2023-03-01T00:53:32;9.98;;;7.63;;
11837;SDS011;5978;51.020;6.764;2023-03-01T00:55:58;11.27;;;7.20;;
11837;SDS011;5978;51.020;6.764;2023-03-01T00:58:24;10.40;;;7.23;;
11837;SDS011;5978;51.020;6.764;2023-03-01T01:00:50;10.43;;;8.30;;
11837;SDS011;5978;51.020;6.764;2023-03-01T01:03:17;13.27;;;8.43;;
11837;SDS011;5978;51.020;6.764;2023-03-01T01:05:44;8.25;;;7.45;;
11837;SDS011;5978;51.020;6.764;2023-03-01T01:08:09;12.60;;;9.57;;
11837;SDS011;5978;51.020;6.764;2023-03-01T01:10:35;7.80;;;7.00;;
11837;SDS011;5978;51.020;6.764;2023-03-01T01:13:01;10.37;;;7.80;;
11837;SDS011;5978;51.020;6.764;2023-03-01T01:15:27;11.05;;;7.28;;
11837;SDS011;5978;51.020;6.764;2023-03-01T01:17:53;16.63;;;8.57;;
11837;SDS011;5978;51.020;6.764;2023-03-01T01:20:20;10.13;;;7.82;;
11837;SDS011;5978;51.020;6.764;2023-03-01T01:22:46;11.43;;;7.85;;
11837;SDS011;5978;51.020;6.764;2023-03-01T01:25:11;13.40;;;8.00;;
11837;SDS011;5978;51.020;6.764;2023-03-01T01:27:37;15.83;;;9.43;;
11837;SDS011;5978;51.020;6.764;2023-03-01T01:30:03;10.23;;;7.80;;
11837;SDS011;5978;51.020;6.764;2023-03-01T01:32:29;12.20;;;8.38;;
11837;SDS011;5978;51.020;6.764;2023-03-01T01:34:55;15.00;;;8.77;;
11837;SDS011;5978;51.020;6.764;2023-03-01T01:37:21;14.10;;;8.70;;
11837;SDS011;5978;51.020;6.764;2023-03-01T01:39:46;15.93;;;9.37;;
11837;SDS011;5978;51.020;6.764;2023-03-01T01:42:15;15.27;;;10.40;;
11837;SDS011;5978;51.020;6.764;2023-03-01T01:44:42;16.42;;;9.98;;
11837;SDS011;5978;51.020;6.764;2023-03-01T01:47:17;14.18;;;8.98;;
11837;SDS011;5978;51.020;6.764;2023-03-01T01:49:48;14.00;;;9.45;;
11837;SDS011;5978;51.020;6.764;2023-03-01T01:52:18;13.00;;;8.48;;
11837;SDS011;5978;51.020;6.764;2023-03-01T01:54:56;13.70;;;9.00;;
11837;SDS011;5978;51.020;6.764;2023-03-01T01:57:49;14.23;;;8.70;;
11837;SDS011;5978;51.020;6.764;2023-03-01T02:00:17;15.70;;;8.07;;
11837;SDS011;5978;51.020;6.764;2023-03-01T02:02:46;12.40;;;8.80;;
11837;SDS011;5978;51.020;6.764;2023-03-01T02:07:52;15.52;;;9.95;;
11837;SDS011;5978;51.020;6.764;2023-03-01T02:10:19;13.88;;;7.93;;
11837;SDS011;5978;51.020;6.764;2023-03-01T02:12:46;10.82;;;7.70;;
11837;SDS011;5978;51.020;6.764;2023-03-01T02:15:12;13.35;;;8.20;;
11837;SDS011;5978;51.020;6.764;2023-03-01T02:17:38;10.53;;;8.23;;
11837;SDS011;5978;51.020;6.764;2023-03-01T02:22:41;12.93;;;8.55;;
11837;SDS011;5978;51.020;6.764;2023-03-01T02:30:22;12.50;;;7.53;;
11837;SDS011;5978;51.020;6.764;2023-03-01T02:32:50;10.48;;;8.07;;
11837;SDS011;5978;51.020;6.764;2023-03-01T02:35:18;15.23;;;8.85;;
11837;SDS011;5978;51.020;6.764;2023-03-01T02:37:44;12.85;;;8.43;;
11837;SDS011;5978;51.020;6.764;2023-03-01T02:40:11;10.20;;;7.70;;
11837;SDS011;5978;51.020;6.764;2023-03-01T02:42:55;17.48;;;9.75;;
11837;SDS011;5978;51.020;6.764;2023-03-01T02:45:23;10.88;;;7.57;;
11837;SDS011;5978;51.020;6.764;2023-03-01T02:47:50;11.82;;;7.82;;
11837;SDS011;5978;51.020;6.764;2023-03-01T02:50:22;12.25;;;7.90;;
11837;SDS011;5978;51.020;6.764;2023-03-01T02:53:12;11.82;;;8.23;;
11837;SDS011;5978;51.020;6.764;2023-03-01T02:55:40;14.50;;;7.95;;
11837;SDS011;5978;51.020;6.764;2023-03-01T02:58:06;12.93;;;9.10;;
11837;SDS011;5978;51.020;6.764;2023-03-01T03:00:39;12.05;;;8.50;;
11837;SDS011;5978;51.020;6.764;2023-03-01T03:03:20;14.95;;;10.52;;
11837;SDS011;5978;51.020;6.764;2023-03-01T03:05:47;11.50;;;8.05;;
11837;SDS011;5978;51.020;6.764;2023-03-01T03:08:13;9.25;;;8.38;;
11837;SDS011;5978;51.020;6.764;2023-03-01T03:10:41;11.40;;;8.20;;
11837;SDS011;5978;51.020;6.764;2023-03-01T03:13:11;10.10;;;7.20;;
11837;SDS011;5978;51.020;6.764;2023-03-01T03:15:39;8.90;;;7.75;;
11837;SDS011;5978;51.020;6.764;2023-03-01T03:18:07;13.00;;;8.55;;
11837;SDS011;5978;51.020;6.764;2023-03-01T03:20:36;11.93;;;8.80;;
11837;SDS011;5978;51.020;6.764;2023-03-01T03:23:03;10.52;;;7.53;;
11837;SDS011;5978;51.020;6.764;2023-03-01T03:25:30;14.27;;;9.00;;
11837;SDS011;5978;51.020;6.764;2023-03-01T03:27:56;10.40;;;8.37;;
11837;SDS011;5978;51.020;6.764;2023-03-01T03:30:29;11.52;;;8.63;;
11837;SDS011;5978;51.020;6.764;2023-03-01T03:32:57;20.85;;;8.10;;
11837;SDS011;5978;51.020;6.764;2023-03-01T03:35:24;9.90;;;8.23;;
11837;SDS011;5978;51.020;6.764;2023-03-01T03:37:58;9.68;;;7.82;;
11837;SDS011;5978;51.020;6.764;2023-03-01T03:40:37;11.70;;;8.27;;
11837;SDS011;5978;51.020;6.764;2023-03-01T03:43:05;17.38;;;8.23;;
11837;SDS011;5978;51.020;6.764;2023-03-01T03:45:36;10.68;;;7.50;;
11837;SDS011;5978;51.020;6.764;2023-03-01T03:48:03;11.98;;;8.02;;
11837;SDS011;5978;51.020;6.764;2023-03-01T03:50:30;13.10;;;8.70;;
11837;SDS011;5978;51.020;6.764;2023-03-01T03:52:55;14.37;;;8.50;;
11837;SDS011;5978;51.020;6.764;2023-03-01T03:55:21;13.23;;;10.00;;
11837;SDS011;5978;51.020;6.764;2023-03-01T03:57:47;10.20;;;7.93;;
11837;SDS011;5978;51.020;6.764;2023-03-01T04:00:19;15.38;;;8.98;;
11837;SDS011;5978;51.020;6.764;2023-03-01T04:02:47;12.38;;;9.23;;
11837;SDS011;5978;51.020;6.764;2023-03-01T04:05:14;14.73;;;9.55;;
11837;SDS011;5978;51.020;6.764;2023-03-01T04:07:42;11.20;;;9.10;;
11837;SDS011;5978;51.020;6.764;2023-03-01T04:10:13;14.15;;;8.48;;
11837;SDS011;5978;51.020;6.764;2023-03-01T04:12:41;13.40;;;8.27;;
11837;SDS011;5978;51.020;6.764;2023-03-01T04:15:10;11.32;;;9.07;;
11837;SDS011;5978;51.020;6.764;2023-03-01T04:17:40;11.18;;;8.55;;
11837;SDS011;5978;51.020;6.764;2023-03-01T04:20:12;18.80;;;9.88;;
11837;SDS011;5978;51.020;6.764;2023-03-01T04:22:46;15.75;;;9.10;;
11837;SDS011;5978;51.020;6.764;2023-03-01T04:25:12;10.25;;;8.13;;
11837;SDS011;5978;51.020;6.764;2023-03-01T04:27:39;15.15;;;8.35;;
11837;SDS011;5978;51.020;6.764;2023-03-01T04:30:06;14.68;;;9.60;;
11837;SDS011;5978;51.020;6.764;2023-03-01T04:32:33;14.80;;;10.25;;
11837;SDS011;5978;51.020;6.764;2023-03-01T04:34:58;15.73;;;8.80;;
11837;SDS011;5978;51.020;6.764;2023-03-01T04:37:24;12.77;;;8.90;;
11837;SDS011;5978;51.020;6.764;2023-03-01T04:39:50;11.63;;;8.13;;
11837;SDS011;5978;51.020;6.764;2023-03-01T04:42:16;13.38;;;8.57;;
11837;SDS011;5978;51.020;6.764;2023-03-01T04:44:43;19.40;;;8.65;;
11837;SDS011;5978;51.020;6.764;2023-03-01T04:47:09;11.73;;;8.40;;
11837;SDS011;5978;51.020;6.764;2023-03-01T04:49:35;12.82;;;8.98;;
11837;SDS011;5978;51.020;6.764;2023-03-01T04:52:01;10.90;;;8.27;;
11837;SDS011;5978;51.020;6.764;2023-03-01T04:54:30;14.93;;;9.45;;
11837;SDS011;5978;51.020;6.764;2023-03-01T04:56:57;17.00;;;7.75;;
11837;SDS011;5978;51.020;6.764;2023-03-01T04:59:23;12.80;;;9.80;;
11837;SDS011;5978;51.020;6.764;2023-03-01T05:01:49;17.23;;;9.50;;
11837;SDS011;5978;51.020;6.764;2023-03-01T05:04:16;11.57;;;9.32;;
11837;SDS011;5978;51.020;6.764;2023-03-01T05:06:41;13.37;;;9.00;;
11837;SDS011;5978;51.020;6.764;2023-03-01T05:09:07;13.87;;;9.20;;
11837;SDS011;5978;51.020;6.764;2023-03-01T05:11:33;13.27;;;9.30;;
11837;SDS011;5978;51.020;6.764;2023-03-01T05:14:04;13.30;;;7.47;;
11837;SDS011;5978;51.020;6.764;2023-03-01T05:16:31;14.30;;;9.20;;
11837;SDS011;5978;51.020;6.764;2023-03-01T05:18:58;16.38;;;9.35;;
11837;SDS011;5978;51.020;6.764;2023-03-01T05:21:24;15.75;;;9.25;;
11837;SDS011;5978;51.020;6.764;2023-03-01T05:23:50;12.45;;;7.95;;
11837;SDS011;5978;51.020;6.764;2023-03-01T05:26:16;15.37;;;8.73;;
11837;SDS011;5978;51.020;6.764;2023-03-01T05:28:43;19.38;;;9.93;;
11837;SDS011;5978;51.020;6.764;2023-03-01T05:31:09;13.23;;;8.68;;
11837;SDS011;5978;51.020;6.764;2023-03-01T05:33:36;18.73;;;10.37;;
11837;SDS011;5978;51.020;6.764;2023-03-01T05:36:03;13.55;;;9.40;;
11837;SDS011;5978;51.020;6.764;2023-03-01T05:38:29;15.27;;;8.80;;
11837;SDS011;5978;51.020;6.764;2023-03-01T05:40:54;14.90;;;8.87;;
11837;SDS011;5978;51.020;6.764;2023-03-01T05:43:20;14.70;;;9.77;;
11837;SDS011;5978;51.020;6.764;2023-03-01T05:45:46;15.60;;;10.20;;
11837;SDS011;5978;51.020;6.764;2023-03-01T05:48:12;15.80;;;8.93;;
11837;SDS011;5978;51.020;6.764;2023-03-01T05:50:42;16.75;;;9.50;;
11837;SDS011;5978;51.020;6.764;2023-03-01T05:53:12;17.10;;;10.52;;
11837;SDS011;5978;51.020;6.764;2023-03-01T05:55:41;16.73;;;10.13;;
11837;SDS011;5978;51.020;6.764;2023-03-01T05:58:09;16.15;;;10.07;;
11837;SDS011;5978;51.020;6.764;2023-03-01T06:00:39;16.50;;;9.73;;
11837;SDS011;5978;51.020;6.764;2023-03-01T06:03:05;16.02;;;10.10;;
11837;SDS011;5978;51.020;6.764;2023-03-01T06:05:31;14.60;;;10.00;;
11837;SDS011;5978;51.020;6.764;2023-03-01T06:08:00;16.53;;;10.20;;
11837;SDS011;5978;51.020;6.764;2023-03-01T06:10:26;16.73;;;10.82;;
11837;SDS011;5978;51.020;6.764;2023-03-01T06:12:52;18.90;;;9.23;;
11837;SDS011;5978;51.020;6.764;2023-03-01T06:15:18;15.45;;;9.85;;
11837;SDS011;5978;51.020;6.764;2023-03-01T06:17:45;15.52;;;10.00;;
11837;SDS011;5978;51.020;6.764;2023-03-01T06:20:12;19.93;;;11.27;;
11837;SDS011;5978;51.020;6.764;2023-03-01T06:22:43;20.13;;;12.70;;
11837;SDS011;5978;51.020;6.764;2023-03-01T06:25:10;18.90;;;12.05;;
11837;SDS011;5978;51.020;6.764;2023-03-01T06:27:37;17.73;;;12.00;;
11837;SDS011;5978;51.020;6.764;2023-03-01T06:30:04;20.48;;;13.23;;
11837;SDS011;5978;51.020;6.764;2023-03-01T06:32:30;22.90;;;12.40;;
11837;SDS011;5978;51.020;6.764;2023-03-01T06:34:56;17.67;;;13.30;;
11837;SDS011;5978;51.020;6.764;2023-03-01T06:37:24;32.92;;;16.33;;
11837;SDS011;5978;51.020;6.764;2023-03-01T06:39:50;30.77;;;18.48;;
11837;SDS011;5978;51.020;6.764;2023-03-01T06:42:16;18.40;;;13.33;;
11837;SDS011;5978;51.020;6.764;2023-03-01T06:44:42;13.90;;;9.90;;
11837;SDS011;5978;51.020;6.764;2023-03-01T06:47:09;20.20;;;11.77;;
11837;SDS011;5978;51.020;6.764;2023-03-01T06:49:34;14.67;;;9.93;;
11837;SDS011;5978;51.020;6.764;2023-03-01T06:52:00;14.00;;;9.67;;
11837;SDS011;5978;51.020;6.764;2023-03-01T06:54:26;18.17;;;12.30;;
11837;SDS011;5978;51.020;6.764;2023-03-01T06:56:52;23.93;;;11.53;;
11837;SDS011;5978;51.020;6.764;2023-03-01T06:59:17;20.43;;;12.17;;
11837;SDS011;5978;51.020;6.764;2023-03-01T07:01:43;18.00;;;11.57;;
11837;SDS011;5978;51.020;6.764;2023-03-01T07:04:10;19.90;;;10.67;;
11837;SDS011;5978;51.020;6.764;2023-03-01T07:06:36;15.75;;;10.20;;
11837;SDS011;5978;51.020;6.764;2023-03-01T07:09:01;18.53;;;11.10;;
11837;SDS011;5978;51.020;6.764;2023-03-01T07:11:27;16.20;;;11.50;;
11837;SDS011;5978;51.020;6.764;2023-03-01T07:13:53;16.70;;;11.07;;
11837;SDS011;5978;51.020;6.764;2023-03-01T07:16:20;16.42;;;10.00;;
11837;SDS011;5978;51.020;6.764;2023-03-01T07:18:46;16.63;;;10.77;;
11837;SDS011;5978;51.020;6.764;2023-03-01T07:21:12;30.17;;;13.25;;
11837;SDS011;5978;51.020;6.764;2023-03-01T07:23:39;21.00;;;12.80;;
11837;SDS011;5978;51.020;6.764;2023-03-01T07:26:05;17.85;;;12.00;;
11837;SDS011;5978;51.020;6.764;2023-03-01T07:28:31;19.63;;;13.25;;
11837;SDS011;5978;51.020;6.764;2023-03-01T07:31:03;25.83;;;13.73;;
11837;SDS011;5978;51.020;6.764;2023-03-01T07:33:32;19.90;;;11.77;;
11837;SDS011;5978;51.020;6.764;2023-03-01T07:35:59;20.57;;;12.50;;
11837;SDS011;5978;51.020;6.764;2023-03-01T07:38:27;20.73;;;13.10;;
11837;SDS011;5978;51.020;6.764;2023-03-01T07:40:57;18.00;;;12.50;;
11837;SDS011;5978;51.020;6.764;2023-03-01T07:43:24;24.13;;;13.55;;
11837;SDS011;5978;51.020;6.764;2023-03-01T07:45:49;23.73;;;12.83;;
11837;SDS011;5978;51.020;6.764;2023-03-01T07:48:15;16.63;;;11.60;;
11837;SDS011;5978;51.020;6.764;2023-03-01T07:50:41;22.33;;;14.60;;
11837;SDS011;5978;51.020;6.764;2023-03-01T07:53:06;21.23;;;11.17;;
11837;SDS011;5978;51.020;6.764;2023-03-01T07:55:33;17.50;;;10.55;;
11837;SDS011;5978;51.020;6.764;2023-03-01T07:57:59;18.30;;;11.83;;
11837;SDS011;5978;51.020;6.764;2023-03-01T08:00:24;21.87;;;12.70;;
11837;SDS011;5978;51.020;6.764;2023-03-01T08:02:50;16.70;;;11.37;;
11837;SDS011;5978;51.020;6.764;2023-03-01T08:05:16;15.23;;;10.43;;
11837;SDS011;5978;51.020;6.764;2023-03-01T08:07:42;18.35;;;12.98;;
11837;SDS011;5978;51.020;6.764;2023-03-01T08:10:08;17.80;;;11.53;;
11837;SDS011;5978;51.020;6.764;2023-03-01T08:12:35;19.67;;;12.93;;
11837;SDS011;5978;51.020;6.764;2023-03-01T08:15:01;22.63;;;11.57;;
11837;SDS011;5978;51.020;6.764;2023-03-01T08:17:26;23.70;;;11.80;;
11837;SDS011;5978;51.020;6.764;2023-03-01T08:19:52;17.30;;;11.27;;
11837;SDS011;5978;51.020;6.764;2023-03-01T08:22:18;16.30;;;10.67;;
11837;SDS011;5978;51.020;6.764;2023-03-01T08:24:43;15.63;;;11.10;;
11837;SDS011;5978;51.020;6.764;2023-03-01T08:27:09;21.13;;;11.80;;
11837;SDS011;5978;51.020;6.764;2023-03-01T08:29:37;16.65;;;11.52;;
11837;SDS011;5978;51.020;6.764;2023-03-01T08:32:03;16.00;;;11.00;;
11837;SDS011;5978;51.020;6.764;2023-03-01T08:34:29;15.68;;;11.75;;
11837;SDS011;5978;51.020;6.764;2023-03-01T08:36:56;17.88;;;12.05;;
11837;SDS011;5978;51.020;6.764;2023-03-01T08:39:22;15.60;;;11.00;;
11837;SDS011;5978;51.020;6.764;2023-03-01T08:41:47;21.93;;;13.20;;
11837;SDS011;5978;51.020;6.764;2023-03-01T08:44:14;16.90;;;11.73;;
11837;SDS011;5978;51.020;6.764;2023-03-01T08:46:44;17.17;;;11.88;;
11837;SDS011;5978;51.020;6.764;2023-03-01T08:49:15;18.58;;;11.90;;
11837;SDS011;5978;51.020;6.764;2023-03-01T08:51:43;22.30;;;13.13;;
11837;SDS011;5978;51.020;6.764;2023-03-01T08:54:11;14.32;;;10.98;;
11837;SDS011;5978;51.020;6.764;2023-03-01T08:56:38;17.55;;;11.60;;
11837;SDS011;5978;51.020;6.764;2023-03-01T08:59:04;20.83;;;11.00;;
11837;SDS011;5978;51.020;6.764;2023-03-01T09:01:30;24.50;;;13.23;;
11837;SDS011;5978;51.020;6.764;2023-03-01T09:03:55;20.67;;;12.70;;
11837;SDS011;5978;51.020;6.764;2023-03-01T09:06:21;19.27;;;12.37;;
11837;SDS011;5978;51.020;6.764;2023-03-01T09:08:48;17.03;;;12.70;;
11837;SDS011;5978;51.020;6.764;2023-03-01T09:11:15;20.08;;;13.07;;
11837;SDS011;5978;51.020;6.764;2023-03-01T09:13:44;16.48;;;12.68;;
11837;SDS011;5978;51.020;6.764;2023-03-01T09:16:11;18.40;;;12.18;;
11837;SDS011;5978;51.020;6.764;2023-03-01T09:18:38;19.67;;;13.00;;
11837;SDS011;5978;51.020;6.764;2023-03-01T09:21:11;20.73;;;11.77;;
11837;SDS011;5978;51.020;6.764;2023-03-01T09:23:39;24.73;;;14.38;;
11837;SDS011;5978;51.020;6.764;2023-03-01T09:26:10;22.10;;;12.00;;
11837;SDS011;5978;51.020;6.764;2023-03-01T09:28:40;20.05;;;13.10;;
11837;SDS011;5978;51.020;6.764;2023-03-01T09:31:11;16.85;;;12.40;;
11837;SDS011;5978;51.020;6.764;2023-03-01T09:33:38;16.45;;;12.23;;
11837;SDS011;5978;51.020;6.764;2023-03-01T09:36:06;22.00;;;12.70;;
11837;SDS011;5978;51.020;6.764;2023-03-01T09:38:39;19.35;;;12.60;;
11837;SDS011;5978;51.020;6.764;2023-03-01T09:41:26;19.33;;;13.50;;
11837;SDS011;5978;51.020;6.764;2023-03-01T09:43:59;17.80;;;11.95;;
11837;SDS011;5978;51.020;6.764;2023-03-01T09:46:29;18.13;;;11.82;;
11837;SDS011;5978;51.020;6.764;2023-03-01T09:49:02;18.52;;;11.10;;
11837;SDS011;5978;51.020;6.764;2023-03-01T09:51:33;21.50;;;11.60;;
11837;SDS011;5978;51.020;6.764;2023-03-01T09:54:01;16.90;;;11.18;;
11837;SDS011;5978;51.020;6.764;2023-03-01T09:59:15;24.63;;;12.00;;
11837;SDS011;5978;51.020;6.764;2023-03-01T10:07:32;14.70;;;10.95;;
11837;SDS011;5978;51.020;6.764;2023-03-01T10:10:24;17.08;;;10.45;;
11837;SDS011;5978;51.020;6.764;2023-03-01T10:12:53;13.38;;;9.82;;
11837;SDS011;5978;51.020;6.764;2023-03-01T10:15:35;19.35;;;10.73;;
11837;SDS011;5978;51.020;6.764;2023-03-01T10:18:18;15.90;;;10.73;;
11837;SDS011;5978;51.020;6.764;2023-03-01T10:20:51;12.25;;;9.15;;
11837;SDS011;5978;51.020;6.764;2023-03-01T10:23:25;14.00;;;9.57;;
11837;SDS011;5978;51.020;6.764;2023-03-01T10:28:39;14.20;;;10.73;;
11837;SDS011;5978;51.020;6.764;2023-03-01T10:31:27;13.90;;;9.70;;
11837;SDS011;5978;51.020;6.764;2023-03-01T10:34:08;13.93;;;9.82;;
11837;SDS011;5978;51.020;6.764;2023-03-01T10:36:43;15.00;;;10.07;;
11837;SDS011;5978;51.020;6.764;2023-03-01T10:39:20;18.27;;;10.80;;
11837;SDS011;5978;51.020;6.764;2023-03-01T10:41:56;14.70;;;9.63;;
11837;SDS011;5978;51.020;6.764;2023-03-01T10:44:39;14.52;;;10.07;;
11837;SDS011;5978;51.020;6.764;2023-03-01T10:47:26;15.93;;;10.07;;
11837;SDS011;5978;51.020;6.764;2023-03-01T10:49:56;16.55;;;11.27;;
11837;SDS011;5978;51.020;6.764;2023-03-01T10:52:28;16.10;;;10.05;;
11837;SDS011;5978;51.020;6.764;2023-03-01T10:55:01;11.65;;;9.48;;
11837;SDS011;5978;51.020;6.764;2023-03-01T10:57:47;16.15;;;11.02;;
11837;SDS011;5978;51.020;6.764;2023-03-01T11:05:23;18.17;;;10.30;;
11837;SDS011;5978;51.020;6.764;2023-03-01T11:07:59;16.03;;;10.20;;
11837;SDS011;5978;51.020;6.764;2023-03-01T11:10:36;12.50;;;10.07;;
11837;SDS011;5978;51.020;6.764;2023-03-01T11:13:07;12.60;;;10.30;;
11837;SDS011;5978;51.020;6.764;2023-03-01T11:15:43;17.83;;;11.70;;
11837;SDS011;5978;51.020;6.764;2023-03-01T11:18:23;11.50;;;9.70;;
11837;SDS011;5978;51.020;6.764;2023-03-01T11:20:56;15.60;;;10.63;;
11837;SDS011;5978;51.020;6.764;2023-03-01T11:23:28;14.87;;;11.47;;
11837;SDS011;5978;51.020;6.764;2023-03-01T11:25:55;13.50;;;10.07;;
11837;SDS011;5978;51.020;6.764;2023-03-01T11:28:24;11.73;;;9.30;;
11837;SDS011;5978;51.020;6.764;2023-03-01T11:30:58;14.70;;;11.23;;
11837;SDS011;5978;51.020;6.764;2023-03-01T11:36:25;12.77;;;9.57;;
11837;SDS011;5978;51.020;6.764;2023-03-01T11:39:30;12.23;;;10.30;;
11837;SDS011;5978;51.020;6.764;2023-03-01T11:42:03;12.70;;;9.80;;
11837;SDS011;5978;51.020;6.764;2023-03-01T11:44:35;15.40;;;9.40;;
11837;SDS011;5978;51.020;6.764;2023-03-01T11:52:41;13.07;;;10.17;;
11837;SDS011;5978;51.020;6.764;2023-03-01T12:00:54;12.30;;;10.60;;
11837;SDS011;5978;51.020;6.764;2023-03-01T12:06:25;13.00;;;10.00;;
11837;SDS011;5978;51.020;6.764;2023-03-01T12:12:11;10.20;;;9.20;;
11837;SDS011;5978;51.020;6.764;2023-03-01T12:15:06;15.83;;;10.40;;
11837;SDS011;5978;51.020;6.764;2023-03-01T12:26:11;12.13;;;10.93;;
11837;SDS011;5978;51.020;6.764;2023-03-01T12:31:38;14.97;;;11.20;;
11837;SDS011;5978;51.020;6.764;2023-03-01T12:50:59;14.03;;;11.13;;
11837;SDS011;5978;51.020;6.764;2023-03-01T12:53:31;11.43;;;10.23;;
11837;SDS011;5978;51.020;6.764;2023-03-01T12:56:01;10.77;;;9.00;;
11837;SDS011;5978;51.020;6.764;2023-03-01T13:04:17;13.97;;;12.10;;
11837;SDS011;5978;51.020;6.764;2023-03-01T13:09:43;14.10;;;12.40;;
11837;SDS011;5978;51.020;6.764;2023-03-01T13:17:52;19.00;;;13.30;;
11837;SDS011;5978;51.020;6.764;2023-03-01T13:21:05;14.63;;;12.47;;
11837;SDS011;5978;51.020;6.764;2023-03-01T13:33:48;20.10;;;12.70;;
11837;SDS011;5978;51.020;6.764;2023-03-01T13:38:58;15.77;;;11.83;;
11837;SDS011;5978;51.020;6.764;2023-03-01T13:46:48;13.97;;;10.83;;
11837;SDS011;5978;51.020;6.764;2023-03-01T13:49:16;13.70;;;10.50;;
11837;SDS011;5978;51.020;6.764;2023-03-01T13:51:48;15.70;;;11.63;;
11837;SDS011;5978;51.020;6.764;2023-03-01T13:54:15;11.33;;;10.23;;
11837;SDS011;5978;51.020;6.764;2023-03-01T13:56:45;12.60;;;9.97;;
11837;SDS011;5978;51.020;6.764;2023-03-01T13:59:16;15.23;;;10.03;;
11837;SDS011;5978;51.020;6.764;2023-03-01T14:01:43;14.27;;;10.30;;
11837;SDS011;5978;51.020;6.764;2023-03-01T14:04:26;15.43;;;10.83;;
11837;SDS011;5978;51.020;6.764;2023-03-01T14:07:11;13.40;;;11.10;;
11837;SDS011;5978;51.020;6.764;2023-03-01T14:09:45;11.00;;;8.87;;
11837;SDS011;5978;51.020;6.764;2023-03-01T14:12:19;12.07;;;9.23;;
11837;SDS011;5978;51.020;6.764;2023-03-01T14:15:26;13.00;;;9.30;;
11837;SDS011;5978;51.020;6.764;2023-03-01T14:18:04;14.20;;;9.43;;
11837;SDS011;5978;51.020;6.764;2023-03-01T14:20:43;11.43;;;8.83;;
11837;SDS011;5978;51.020;6.764;2023-03-01T14:23:17;13.37;;;10.07;;
11837;SDS011;5978;51.020;6.764;2023-03-01T14:25:49;11.80;;;9.70;;
11837;SDS011;5978;51.020;6.764;2023-03-01T14:28:29;12.10;;;9.40;;
11837;SDS011;5978;51.020;6.764;2023-03-01T14:30:59;12.77;;;10.13;;
11837;SDS011;5978;51.020;6.764;2023-03-01T14:33:33;12.70;;;9.03;;
11837;SDS011;5978;51.020;6.764;2023-03-01T14:36:05;11.90;;;10.00;;
11837;SDS011;5978;51.020;6.764;2023-03-01T14:41:03;13.43;;;9.77;;
11837;SDS011;5978;51.020;6.764;2023-03-01T14:44:05;17.87;;;9.23;;
11837;SDS011;5978;51.020;6.764;2023-03-01T14:46:40;11.23;;;9.67;;
11837;SDS011;5978;51.020;6.764;2023-03-01T14:49:12;12.93;;;9.60;;
11837;SDS011;5978;51.020;6.764;2023-03-01T14:51:42;13.23;;;9.83;;
11837;SDS011;5978;51.020;6.764;2023-03-01T14:54:20;10.37;;;8.80;;
11837;SDS011;5978;51.020;6.764;2023-03-01T14:56:52;10.80;;;8.73;;
11837;SDS011;5978;51.020;6.764;2023-03-01T14:59:22;10.70;;;9.00;;
11837;SDS011;5978;51.020;6.764;2023-03-01T15:01:50;10.23;;;8.60;;
11837;SDS011;5978;51.020;6.764;2023-03-01T15:04:17;13.43;;;9.13;;
11837;SDS011;5978;51.020;6.764;2023-03-01T15:06:44;12.10;;;8.50;;
11837;SDS011;5978;51.020;6.764;2023-03-01T15:09:14;10.97;;;9.00;;
11837;SDS011;5978;51.020;6.764;2023-03-01T15:11:41;11.70;;;9.20;;
11837;SDS011;5978;51.020;6.764;2023-03-01T15:17:16;12.93;;;8.93;;
11837;SDS011;5978;51.020;6.764;2023-03-01T15:20:00;11.90;;;8.97;;
11837;SDS011;5978;51.020;6.764;2023-03-01T15:22:27;11.30;;;8.83;;
11837;SDS011;5978;51.020;6.764;2023-03-01T15:24:53;12.63;;;9.03;;
11837;SDS011;5978;51.020;6.764;2023-03-01T15:27:21;9.87;;;8.87;;
11837;SDS011;5978;51.020;6.764;2023-03-01T15:29:50;16.70;;;9.20;;
11837;SDS011;5978;51.020;6.764;2023-03-01T15:32:27;13.90;;;9.80;;
11837;SDS011;5978;51.020;6.764;2023-03-01T15:34:58;12.97;;;9.73;;
11837;SDS011;5978;51.020;6.764;2023-03-01T15:37:45;10.83;;;8.67;;
11837;SDS011;5978;51.020;6.764;2023-03-01T15:42:48;16.33;;;8.73;;
11837;SDS011;5978;51.020;6.764;2023-03-01T15:47:52;11.20;;;9.20;;
11837;SDS011;5978;51.020;6.764;2023-03-01T15:52:54;11.27;;;8.50;;
11837;SDS011;5978;51.020;6.764;2023-03-01T15:55:23;10.20;;;8.43;;
11837;SDS011;5978;51.020;6.764;2023-03-01T15:58:00;12.90;;;9.30;;
11837;SDS011;5978;51.020;6.764;2023-03-01T16:00:29;17.13;;;9.90;;
11837;SDS011;5978;51.020;6.764;2023-03-01T16:02:55;11.33;;;8.60;;
11837;SDS011;5978;51.020;6.764;2023-03-01T16:05:23;11.17;;;8.73;;
11837;SDS011;5978;51.020;6.764;2023-03-01T16:07:51;14.10;;;8.20;;
11837;SDS011;5978;51.020;6.764;2023-03-01T16:10:17;12.20;;;7.47;;
11837;SDS011;5978;51.020;6.764;2023-03-01T16:12:44;12.33;;;7.23;;
11837;SDS011;5978;51.020;6.764;2023-03-01T16:15:16;10.05;;;7.47;;
11837;SDS011;5978;51.020;6.764;2023-03-01T16:17:44;16.83;;;7.83;;
11837;SDS011;5978;51.020;6.764;2023-03-01T16:20:10;10.10;;;7.47;;
11837;SDS011;5978;51.020;6.764;2023-03-01T16:22:36;13.75;;;8.23;;
11837;SDS011;5978;51.020;6.764;2023-03-01T16:25:01;9.73;;;7.13;;
11837;SDS011;5978;51.020;6.764;2023-03-01T16:27:28;17.13;;;8.55;;
11837;SDS011;5978;51.020;6.764;2023-03-01T16:29:54;10.00;;;7.67;;
11837;SDS011;5978;51.020;6.764;2023-03-01T16:32:19;13.50;;;7.40;;
11837;SDS011;5978;51.020;6.764;2023-03-01T16:34:46;10.97;;;6.83;;
11837;SDS011;5978;51.020;6.764;2023-03-01T16:37:14;15.05;;;8.05;;
11837;SDS011;5978;51.020;6.764;2023-03-01T16:39:41;11.75;;;7.18;;
11837;SDS011;5978;51.020;6.764;2023-03-01T16:42:07;12.45;;;7.80;;
11837;SDS011;5978;51.020;6.764;2023-03-01T16:44:33;11.70;;;8.77;;
11837;SDS011;5978;51.020;6.764;2023-03-01T16:46:58;12.47;;;8.13;;
11837;SDS011;5978;51.020;6.764;2023-03-01T16:49:24;10.07;;;7.03;;
11837;SDS011;5978;51.020;6.764;2023-03-01T16:51:50;10.83;;;7.30;;
11837;SDS011;5978;51.020;6.764;2023-03-01T16:54:18;12.02;;;7.75;;
11837;SDS011;5978;51.020;6.764;2023-03-01T16:56:44;13.00;;;8.17;;
11837;SDS011;5978;51.020;6.764;2023-03-01T16:59:09;14.87;;;7.70;;
11837;SDS011;5978;51.020;6.764;2023-03-01T17:01:35;9.23;;;6.47;;